KPMD/PMD METAR and TAF weather

Enter ICAO airport designator
Station Type Date Time Source
KPMD METAR 2021/09/28 04:53 UTC NOAA

KPMD 280453Z 18008KT 10SM CLR 19/08 A2995 RMK AO2 SLP119 T01890083


Station Type Date Time Source
KPMD Decoded METAR 2021/09/28 04:53 UTC NOAA

PALMDALE PROD FLIGHT PLANT, CA, United States (KPMD) 34-38N 118-05W 780M
Sep 28, 2021 - 12:53 AM EDT / 2021.09.28 0453 UTC
Wind: from the S (180 degrees) at 9 MPH (8 KT):0
Visibility: 10 mile(s):0
Sky conditions: clear
Temperature: 66.0 F (18.9 C)
Dew Point: 46.9 F (8.3 C)
Relative Humidity: 50%
Pressure (altimeter): 29.95 in. Hg (1014 hPa)
ob: KPMD 280453Z 18008KT 10SM CLR 19/08 A2995 RMK AO2 SLP119 T01890083
cycle: 5

Station Type Date Time Source
KPMD TAF 2021/09/28 06:27 UTC NOAA

TAF KPMD 280524Z 2806/2906 19012KT P6SM SKC
FM281100 25020G30KT P6SM SKC
FM290300 26015KT P6SM SKC

Example: see airport list